Terminal Aerodrome Forecast
Issued by NWS

Home | Current Version | Previous Version | Text Only | Print | Product List | Glossary On
Versions: 1 2 3 4 5 6 7 8 9 10 11 12 13 14 15 16 17 18 19 20 21 22 23 24 25 26 27 28 29 30 31
000
FTUS41 KCTP 300328 AAA
TAFBFD
TAF AMD
KBFD 300328Z 3003/3024 07005KT P6SM BKN250
     FM300600 09005KT P6SM OVC100
     FM301700 12010KT 6SM -RAPL OVC025
     FM301900 12010G17KT 2SM -RA OVC015 WS020/17035KT=

USA.gov is the U.S. government's official web portal to all federal, state and local government web resources and services.